createdAt,value
2022-07-29T00:00:07.060Z,39.48
2022-07-29T00:02:36.893Z,39.57
2022-07-29T00:05:05.917Z,39.45
2022-07-29T00:07:34.140Z,39.76
2022-07-29T00:10:02.038Z,39.67
2022-07-29T00:12:30.079Z,39.57
2022-07-29T00:14:58.713Z,39.73
2022-07-29T00:17:26.903Z,39.93
2022-07-29T00:19:56.153Z,39.96
2022-07-29T00:22:24.033Z,40.04
2022-07-29T00:24:52.031Z,40.24
2022-07-29T00:27:20.152Z,40.12
2022-07-29T00:29:48.108Z,40.17
2022-07-29T00:32:15.984Z,40.14
2022-07-29T00:35:02.334Z,40.26
2022-07-29T00:37:31.734Z,40.43
2022-07-29T00:39:59.599Z,40.35
2022-07-29T00:42:27.369Z,40.42
2022-07-29T00:44:55.307Z,40.48
2022-07-29T00:47:23.093Z,40.59
2022-07-29T00:49:51.075Z,40.70
2022-07-29T00:52:19.156Z,40.78
2022-07-29T00:54:48.386Z,41.06
2022-07-29T00:57:16.519Z,40.79
2022-07-29T00:59:44.497Z,41.28
2022-07-29T01:02:12.445Z,40.91
2022-07-29T01:04:40.914Z,41.28
2022-07-29T01:07:09.701Z,41.24
2022-07-29T01:09:45.555Z,41.58
2022-07-29T01:12:18.881Z,41.67
2022-07-29T01:14:47.867Z,41.16
2022-07-29T01:17:22.299Z,41.85
2022-07-29T01:19:58.199Z,41.80
2022-07-29T01:22:50.424Z,42.46
2022-07-29T01:25:42.850Z,42.37
2022-07-29T01:28:45.469Z,42.64
2022-07-29T01:31:25.088Z,42.08
2022-07-29T01:33:59.836Z,42.00
2022-07-29T01:36:34.468Z,42.42
2022-07-29T01:39:09.738Z,42.69
2022-07-29T01:41:42.181Z,42.36
2022-07-29T01:44:17.535Z,42.57
2022-07-29T01:46:53.433Z,43.09
2022-07-29T01:49:26.340Z,42.63
2022-07-29T01:51:59.535Z,42.44
2022-07-29T01:54:33.139Z,42.99
2022-07-29T01:57:02.995Z,43.45
2022-07-29T01:59:32.035Z,42.78
2022-07-29T02:02:02.933Z,43.19
2022-07-29T02:04:34.130Z,42.75
2022-07-29T02:07:05.812Z,42.88
2022-07-29T02:09:35.902Z,42.92
2022-07-29T02:12:06.604Z,43.26
2022-07-29T02:14:39.215Z,43.90
2022-07-29T02:17:09.333Z,43.41
2022-07-29T02:19:40.403Z,43.59
2022-07-29T02:22:08.752Z,43.32
2022-07-29T02:24:39.140Z,43.32
2022-07-29T02:27:06.790Z,43.23
2022-07-29T02:29:35.301Z,43.38
2022-07-29T02:32:04.769Z,43.66
2022-07-29T02:34:35.463Z,44.15
2022-07-29T02:37:04.731Z,43.61
2022-07-29T02:39:33.497Z,43.29
2022-07-29T02:42:05.687Z,44.27
2022-07-29T02:44:34.841Z,43.48
2022-07-29T02:47:12.420Z,44.25
2022-07-29T02:49:48.342Z,44.25
2022-07-29T02:52:22.196Z,44.25
2022-07-29T02:54:55.986Z,44.83
2022-07-29T02:57:30.991Z,44.17
2022-07-29T03:00:01.230Z,43.96
2022-07-29T03:02:30.539Z,43.99
2022-07-29T03:05:03.746Z,44.14
2022-07-29T03:07:31.737Z,43.86
2022-07-29T03:10:00.279Z,43.88
2022-07-29T03:12:29.291Z,43.64
2022-07-29T03:14:57.470Z,44.08
2022-07-29T03:17:25.413Z,43.71
2022-07-29T03:19:53.099Z,44.08
2022-07-29T03:22:21.978Z,44.23
2022-07-29T03:24:49.645Z,44.15
2022-07-29T03:27:17.403Z,43.96
2022-07-29T03:29:50.026Z,44.25
2022-07-29T03:32:23.882Z,44.07
2022-07-29T03:34:52.786Z,44.57
2022-07-29T03:37:21.760Z,44.52
2022-07-29T03:39:51.279Z,44.72
2022-07-29T03:42:21.938Z,44.79
2022-07-29T03:44:50.795Z,44.49
2022-07-29T03:47:21.515Z,44.89
2022-07-29T03:49:53.705Z,45.11
2022-07-29T03:52:23.249Z,45.17
2022-07-29T03:54:51.541Z,44.83
2022-07-29T03:57:22.327Z,45.83
2022-07-29T03:59:50.904Z,44.70
2022-07-29T04:02:21.931Z,45.13
2022-07-29T04:04:51.370Z,44.84
2022-07-29T04:07:18.946Z,45.03
2022-07-29T04:09:47.786Z,44.93
2022-07-29T04:12:15.300Z,44.84
2022-07-29T04:14:42.829Z,45.04
2022-07-29T04:17:10.803Z,45.36
2022-07-29T04:19:38.441Z,44.80
2022-07-29T04:22:06.138Z,44.82
2022-07-29T04:24:33.815Z,45.10
2022-07-29T04:27:02.633Z,45.11
2022-07-29T04:29:30.150Z,44.65
2022-07-29T04:31:57.834Z,44.72
2022-07-29T04:34:28.044Z,44.65
2022-07-29T04:36:56.132Z,44.83
2022-07-29T04:39:23.672Z,44.78
2022-07-29T04:41:52.543Z,44.92
2022-07-29T04:44:27.662Z,45.19
2022-07-29T04:46:57.764Z,45.20
2022-07-29T04:49:25.688Z,44.65
2022-07-29T04:51:53.359Z,44.71
2022-07-29T04:54:20.924Z,45.15
2022-07-29T04:56:48.584Z,44.85
2022-07-29T04:59:16.485Z,44.77
2022-07-29T05:01:45.469Z,45.12
2022-07-29T05:04:13.949Z,44.82
2022-07-29T05:06:42.135Z,45.43
2022-07-29T05:20:42.407Z,46.02
2022-07-29T05:23:01.876Z,45.35
2022-07-29T05:29:44.775Z,44.24
2022-07-29T05:33:05.411Z,45.62
2022-07-29T05:37:13.830Z,45.55
2022-07-29T05:41:00.974Z,45.52
2022-07-29T05:44:15.481Z,44.70
2022-07-29T05:47:09.116Z,44.25
2022-07-29T05:49:37.665Z,44.83
2022-07-29T05:52:07.364Z,44.61
2022-07-29T05:54:36.816Z,44.85
2022-07-29T05:57:07.816Z,45.15
2022-07-29T05:59:38.736Z,44.71
2022-07-29T06:02:07.233Z,44.60
2022-07-29T06:04:36.145Z,44.35
2022-07-29T06:07:05.254Z,43.97
2022-07-29T06:09:36.205Z,44.22
2022-07-29T06:12:06.902Z,43.90
2022-07-29T06:14:38.960Z,44.26
2022-07-29T06:17:07.552Z,43.48
2022-07-29T06:19:37.335Z,43.49
2022-07-29T06:25:44.261Z,44.02
2022-07-29T06:28:18.361Z,43.51
2022-07-29T06:30:58.848Z,43.61
2022-07-29T06:33:40.979Z,43.62
2022-07-29T06:36:27.306Z,42.27
2022-07-29T06:39:06.882Z,42.31
2022-07-29T06:41:56.759Z,42.42
2022-07-29T06:44:28.592Z,42.00
2022-07-29T06:47:01.247Z,41.75
2022-07-29T06:49:31.660Z,41.09
2022-07-29T06:52:04.045Z,41.03
2022-07-29T06:54:32.950Z,41.31
2022-07-29T06:57:05.616Z,41.56
2022-07-29T06:59:38.205Z,41.49
2022-07-29T07:02:05.919Z,41.68
2022-07-29T07:04:34.397Z,41.48
2022-07-29T07:07:02.465Z,41.45
2022-07-29T07:09:40.185Z,41.21
2022-07-29T07:12:09.126Z,41.30
2022-07-29T07:14:38.075Z,41.32
2022-07-29T07:17:07.944Z,41.32
2022-07-29T07:19:35.673Z,40.65
2022-07-29T07:22:03.827Z,40.70
2022-07-29T07:24:32.498Z,40.08
2022-07-29T07:27:00.185Z,40.20
2022-07-29T07:29:27.905Z,39.95
2022-07-29T07:32:00.950Z,40.04
2022-07-29T07:34:29.816Z,39.37
2022-07-29T07:36:57.392Z,38.73
2022-07-29T07:39:25.977Z,38.96
2022-07-29T07:41:54.439Z,39.47
2022-07-29T07:44:22.407Z,39.22
2022-07-29T07:46:50.565Z,38.61
2022-07-29T07:49:22.726Z,37.90
2022-07-29T07:51:51.239Z,36.44
2022-07-29T07:54:20.546Z,35.77
2022-07-29T07:56:53.099Z,34.70
2022-07-29T07:59:21.549Z,32.91
2022-07-29T08:01:55.910Z,33.60
2022-07-29T08:04:32.136Z,32.82
2022-07-29T08:07:02.562Z,31.95
2022-07-29T08:09:32.269Z,29.81
2022-07-29T08:12:04.037Z,28.48
2022-07-29T08:14:33.021Z,27.05
2022-07-29T08:17:02.619Z,28.06
2022-07-29T08:19:39.732Z,26.88
2022-07-29T08:22:11.046Z,28.37
2022-07-29T08:24:45.804Z,27.40
2022-07-29T08:27:40.650Z,27.63
2022-07-29T08:30:02.324Z,27.39
2022-07-29T08:35:33.381Z,25.81
2022-07-29T08:38:05.302Z,26.82
2022-07-29T08:40:33.904Z,25.36
2022-07-29T08:43:13.856Z,26.22
2022-07-29T08:45:50.654Z,27.46
2022-07-29T08:48:21.251Z,26.57
2022-07-29T08:51:12.229Z,27.13
2022-07-29T08:53:45.279Z,27.81
2022-07-29T08:56:13.824Z,28.09
2022-07-29T08:58:44.262Z,27.89
2022-07-29T09:01:35.238Z,28.61
2022-07-29T09:04:11.786Z,29.51
2022-07-29T09:06:45.534Z,29.30
2022-07-29T09:09:14.622Z,30.58
2022-07-29T09:11:48.818Z,30.98
2022-07-29T09:14:19.539Z,31.24
2022-07-29T09:17:01.162Z,31.18
2022-07-29T09:19:32.529Z,31.33
2022-07-29T09:22:04.215Z,30.17
2022-07-29T09:24:40.697Z,29.77
2022-07-29T09:27:21.984Z,28.40
2022-07-29T09:29:58.178Z,27.93
2022-07-29T09:32:27.443Z,28.17
2022-07-29T09:35:17.727Z,27.07
2022-07-29T09:37:46.948Z,27.71
2022-07-29T09:40:17.077Z,26.64
2022-07-29T09:42:47.079Z,28.08
2022-07-29T09:45:27.611Z,27.65
2022-07-29T09:47:56.686Z,25.61
2022-07-29T09:50:26.659Z,25.20
2022-07-29T09:52:55.709Z,26.46
2022-07-29T09:55:23.754Z,26.74
2022-07-29T09:57:51.810Z,26.86
2022-07-29T10:00:24.243Z,26.69
2022-07-29T10:02:52.940Z,27.21
2022-07-29T10:05:24.273Z,26.26
2022-07-29T10:07:57.337Z,25.67
2022-07-29T10:10:30.531Z,25.65
2022-07-29T10:13:06.365Z,24.23
2022-07-29T10:15:44.602Z,25.78
2022-07-29T10:18:26.234Z,24.92
2022-07-29T10:20:55.730Z,25.74
2022-07-29T10:27:05.886Z,25.73
2022-07-29T10:29:34.170Z,25.35
2022-07-29T10:32:33.556Z,24.41
2022-07-29T10:35:29.523Z,24.43
2022-07-29T10:38:18.894Z,24.46
2022-07-29T10:44:17.059Z,25.76
2022-07-29T10:46:46.084Z,25.86
2022-07-29T10:49:16.766Z,25.72
2022-07-29T10:51:59.683Z,25.72
2022-07-29T10:54:46.464Z,25.41
2022-07-29T10:57:52.551Z,25.43
2022-07-29T11:00:41.911Z,24.80
2022-07-29T11:03:53.730Z,25.18
2022-07-29T11:06:28.176Z,25.03
2022-07-29T11:09:34.915Z,24.21
2022-07-29T11:12:52.844Z,23.46
2022-07-29T11:15:24.958Z,24.26
2022-07-29T11:18:15.070Z,23.26
2022-07-29T11:20:57.091Z,24.08
2022-07-29T11:23:35.939Z,23.93
2022-07-29T11:26:23.687Z,24.35
2022-07-29T11:29:01.351Z,23.85
2022-07-29T11:31:45.710Z,23.95
2022-07-29T11:34:28.061Z,25.11
2022-07-29T11:37:28.110Z,24.45
2022-07-29T11:40:23.589Z,23.69
2022-07-29T11:42:55.033Z,25.36
2022-07-29T11:45:48.375Z,24.19
2022-07-29T11:48:31.449Z,23.82
2022-07-29T11:51:03.117Z,25.11
2022-07-29T11:53:33.394Z,24.87
2022-07-29T11:56:03.829Z,24.10
2022-07-29T11:58:34.341Z,25.01
2022-07-29T12:01:04.635Z,24.08
2022-07-29T12:03:36.825Z,24.72
2022-07-29T12:09:14.342Z,23.80
2022-07-29T12:11:52.544Z,23.68
2022-07-29T12:14:30.471Z,22.84
2022-07-29T12:16:59.612Z,23.52
2022-07-29T12:19:37.550Z,22.45
2022-07-29T12:22:13.420Z,23.39
2022-07-29T12:24:50.793Z,24.64
2022-07-29T12:27:29.306Z,23.97
2022-07-29T12:29:58.943Z,23.55
2022-07-29T12:32:36.658Z,23.25
2022-07-29T12:35:11.150Z,23.37
2022-07-29T12:37:49.371Z,22.44
2022-07-29T12:40:30.490Z,23.13
2022-07-29T13:20:40.145Z,25.64
2022-07-29T13:23:18.621Z,25.86
2022-07-29T13:26:14.796Z,25.70
2022-07-29T13:28:44.348Z,25.91
2022-07-29T13:31:22.016Z,25.89
2022-07-29T13:34:01.632Z,26.18
2022-07-29T13:37:15.204Z,26.51
2022-07-29T13:40:01.265Z,26.92
2022-07-29T13:42:42.463Z,27.22
2022-07-29T13:45:29.173Z,27.01
2022-07-29T13:50:54.979Z,26.92
2022-07-29T13:53:27.380Z,27.20
2022-07-29T13:56:46.285Z,27.25
2022-07-29T13:59:05.608Z,27.45
2022-07-29T14:01:33.627Z,27.34
2022-07-29T14:04:01.271Z,27.13
2022-07-29T14:06:28.962Z,27.84
2022-07-29T14:08:58.794Z,27.97
2022-07-29T14:11:26.276Z,27.70
2022-07-29T14:13:53.802Z,27.56
2022-07-29T14:16:21.361Z,27.59
2022-07-29T14:18:48.924Z,27.64
2022-07-29T14:21:16.566Z,28.81
2022-07-29T14:23:44.166Z,28.80
2022-07-29T14:26:15.935Z,28.34
2022-07-29T14:28:49.316Z,28.94
2022-07-29T14:31:17.180Z,28.39
2022-07-29T14:33:46.261Z,28.70
2022-07-29T14:36:17.004Z,28.25
2022-07-29T14:38:44.565Z,28.51
2022-07-29T14:41:13.608Z,28.86
2022-07-29T14:43:42.333Z,28.79
2022-07-29T14:46:10.207Z,28.66
2022-07-29T14:48:37.946Z,28.83
2022-07-29T14:51:06.265Z,28.42
2022-07-29T14:53:34.046Z,28.16
2022-07-29T14:56:20.896Z,28.18
2022-07-29T14:58:51.827Z,27.81
2022-07-29T15:01:20.285Z,27.98
2022-07-29T15:03:48.310Z,28.35
2022-07-29T15:06:16.537Z,28.23
2022-07-29T15:08:44.504Z,28.66
2022-07-29T15:11:12.361Z,28.28
2022-07-29T15:13:40.460Z,27.79
2022-07-29T15:16:10.191Z,28.03
2022-07-29T15:18:39.577Z,27.47
2022-07-29T15:21:08.568Z,27.45
2022-07-29T15:23:37.305Z,27.75
2022-07-29T15:26:05.816Z,27.62
2022-07-29T15:28:33.901Z,27.72
2022-07-29T15:31:01.669Z,27.80
2022-07-29T15:33:30.883Z,28.06
2022-07-29T15:35:58.895Z,28.06
2022-07-29T15:38:28.675Z,27.85
2022-07-29T15:40:56.914Z,28.05
2022-07-29T15:43:25.000Z,28.30
2022-07-29T15:46:11.889Z,27.91
2022-07-29T15:48:42.193Z,27.47
2022-07-29T15:51:10.102Z,27.70
2022-07-29T15:53:38.073Z,27.95
2022-07-29T15:56:06.639Z,27.52
2022-07-29T15:58:34.428Z,27.57
2022-07-29T16:01:02.393Z,27.85
2022-07-29T16:03:30.885Z,27.49
2022-07-29T16:06:00.248Z,27.81
2022-07-29T16:08:28.325Z,28.14
2022-07-29T16:10:56.233Z,28.05
2022-07-29T16:13:24.250Z,27.56
2022-07-29T16:16:02.129Z,28.03
2022-07-29T16:18:33.732Z,27.86
2022-07-29T16:21:02.938Z,27.61
2022-07-29T16:23:30.927Z,27.86
2022-07-29T16:26:00.434Z,28.36
2022-07-29T16:28:29.368Z,27.51
2022-07-29T16:30:57.558Z,27.87
2022-07-29T16:33:25.871Z,27.62
2022-07-29T16:35:54.124Z,27.47
2022-07-29T16:38:23.299Z,27.91
2022-07-29T16:40:51.222Z,27.81
2022-07-29T16:43:19.275Z,28.16
2022-07-29T16:45:47.324Z,27.98
2022-07-29T16:48:17.941Z,28.13
2022-07-29T16:50:46.565Z,27.89
2022-07-29T16:53:14.533Z,27.82
2022-07-29T16:55:43.941Z,27.91
2022-07-29T16:58:12.568Z,28.19
2022-07-29T17:00:40.807Z,28.32
2022-07-29T17:03:08.956Z,28.15
2022-07-29T17:05:52.070Z,27.87
2022-07-29T17:08:22.300Z,27.88
2022-07-29T17:10:52.011Z,27.65
2022-07-29T17:13:20.105Z,28.23
2022-07-29T17:15:49.634Z,28.25
2022-07-29T17:18:17.625Z,28.44
2022-07-29T17:20:45.743Z,28.53
2022-07-29T17:23:13.555Z,28.48
2022-07-29T17:25:41.374Z,28.28
2022-07-29T17:28:10.685Z,28.51
2022-07-29T17:30:38.790Z,28.59
2022-07-29T17:33:06.644Z,28.65
2022-07-29T17:35:52.387Z,28.37
2022-07-29T17:38:20.313Z,28.63
2022-07-29T17:40:48.630Z,28.31
2022-07-29T17:43:17.794Z,28.40
2022-07-29T17:45:50.339Z,28.77
2022-07-29T17:48:19.891Z,28.36
2022-07-29T17:50:48.288Z,28.56
2022-07-29T17:53:16.906Z,28.68
2022-07-29T17:55:45.844Z,28.71
2022-07-29T17:58:13.814Z,28.81
2022-07-29T18:00:43.655Z,28.71
2022-07-29T18:03:12.391Z,28.86
2022-07-29T18:05:40.517Z,28.97
2022-07-29T18:08:09.238Z,28.70
2022-07-29T18:10:38.164Z,28.80
2022-07-29T18:13:06.169Z,28.90
2022-07-29T18:15:34.392Z,29.08
2022-07-29T18:18:03.746Z,29.12
2022-07-29T18:20:32.139Z,29.20
2022-07-29T18:23:00.160Z,29.11
2022-07-29T18:25:28.960Z,29.19
2022-07-29T18:28:00.279Z,29.07
2022-07-29T18:30:29.043Z,29.38
2022-07-29T18:33:19.854Z,29.44
2022-07-29T18:35:46.197Z,29.19
2022-07-29T18:38:14.245Z,29.67
2022-07-29T18:40:43.024Z,29.59
2022-07-29T18:43:11.402Z,29.61
2022-07-29T18:45:39.812Z,29.60
2022-07-29T18:48:08.449Z,29.73
2022-07-29T18:50:41.011Z,29.83
2022-07-29T18:53:10.153Z,29.78
2022-07-29T18:55:38.109Z,29.84
2022-07-29T18:58:06.190Z,29.97
2022-07-29T19:00:34.187Z,30.16
2022-07-29T19:03:03.217Z,30.08
2022-07-29T19:05:31.488Z,30.20
2022-07-29T19:07:59.602Z,30.36
2022-07-29T19:10:28.905Z,30.24
2022-07-29T19:12:57.852Z,30.48
2022-07-29T19:15:26.103Z,30.30
2022-07-29T19:17:56.655Z,30.77
2022-07-29T19:20:28.455Z,30.67
2022-07-29T19:22:56.230Z,30.74
2022-07-29T19:25:24.086Z,30.94
2022-07-29T19:27:53.439Z,31.26
2022-07-29T19:30:21.537Z,31.00
2022-07-29T19:32:49.745Z,30.83
2022-07-29T19:35:28.319Z,31.04
2022-07-29T19:37:58.985Z,31.16
2022-07-29T19:40:28.383Z,30.93
2022-07-29T19:42:57.779Z,31.41
2022-07-29T19:45:26.765Z,31.26
2022-07-29T19:48:00.767Z,31.20
2022-07-29T19:50:29.328Z,31.24
2022-07-29T19:52:57.173Z,31.45
2022-07-29T19:55:24.965Z,31.68
2022-07-29T19:57:53.855Z,31.63
2022-07-29T20:00:23.821Z,31.92
2022-07-29T20:02:52.230Z,31.84
2022-07-29T20:05:20.235Z,31.82
2022-07-29T20:07:48.291Z,31.75
2022-07-29T20:10:16.345Z,31.74
2022-07-29T20:12:44.181Z,31.88
2022-07-29T20:15:16.665Z,32.06
2022-07-29T20:17:46.093Z,31.78
2022-07-29T20:20:14.094Z,31.76
2022-07-29T20:22:42.319Z,32.02
2022-07-29T20:25:11.939Z,31.92
2022-07-29T20:27:40.731Z,32.34
2022-07-29T20:30:09.611Z,32.07
2022-07-29T20:32:38.907Z,32.30
2022-07-29T20:35:10.060Z,32.18
2022-07-29T20:37:55.705Z,32.07
2022-07-29T20:40:24.829Z,32.12
2022-07-29T20:42:52.726Z,32.40
2022-07-29T20:45:20.977Z,32.77
2022-07-29T20:47:49.016Z,32.37
2022-07-29T20:50:18.477Z,32.72
2022-07-29T20:52:46.233Z,32.52
2022-07-29T20:55:14.385Z,32.86
2022-07-29T20:57:42.765Z,32.42
2022-07-29T21:00:11.962Z,32.56
2022-07-29T21:02:40.069Z,32.91
2022-07-29T21:05:08.321Z,32.73
2022-07-29T21:07:37.711Z,32.81
2022-07-29T21:10:06.384Z,32.68
2022-07-29T21:12:34.474Z,32.93
2022-07-29T21:15:05.851Z,33.09
2022-07-29T21:17:36.168Z,32.98
2022-07-29T21:20:05.528Z,33.14
2022-07-29T21:22:33.464Z,33.12
2022-07-29T21:25:02.651Z,33.36
2022-07-29T21:27:48.101Z,33.11
2022-07-29T21:30:16.094Z,33.18
2022-07-29T21:32:44.088Z,33.04
2022-07-29T21:35:23.435Z,33.51
2022-07-29T21:38:00.664Z,33.84
2022-07-29T21:41:05.686Z,34.46
2022-07-29T21:43:42.899Z,33.83
2022-07-29T21:46:18.530Z,34.79
2022-07-29T21:48:51.145Z,34.54
2022-07-29T21:51:23.938Z,34.14
2022-07-29T21:53:56.552Z,34.43
2022-07-29T21:56:27.936Z,34.59
2022-07-29T21:59:06.201Z,34.32
2022-07-29T22:01:45.369Z,34.55
2022-07-29T22:04:16.318Z,35.05
2022-07-29T22:06:46.185Z,34.88
2022-07-29T22:09:58.844Z,35.63
2022-07-29T22:12:35.028Z,35.47
2022-07-29T22:15:50.597Z,36.22
2022-07-29T22:18:27.534Z,35.73
2022-07-29T22:21:03.187Z,36.12
2022-07-29T22:23:35.868Z,35.44
2022-07-29T22:26:05.476Z,35.43
2022-07-29T22:28:37.204Z,35.36
2022-07-29T22:31:09.022Z,35.20
2022-07-29T22:33:41.770Z,35.30
2022-07-29T22:36:25.091Z,35.21
2022-07-29T22:38:57.918Z,35.75
2022-07-29T22:41:30.453Z,36.16
2022-07-29T22:44:08.970Z,36.55
2022-07-29T22:46:43.791Z,36.33
2022-07-29T22:49:14.153Z,35.64
2022-07-29T22:51:45.773Z,35.68
2022-07-29T22:54:17.121Z,35.90
2022-07-29T22:56:46.652Z,35.74
2022-07-29T22:59:20.393Z,35.98
2022-07-29T23:01:53.557Z,36.14
2022-07-29T23:04:30.734Z,35.99
2022-07-29T23:07:05.019Z,35.86
2022-07-29T23:09:38.149Z,35.95
2022-07-29T23:12:10.790Z,36.01
2022-07-29T23:14:45.007Z,36.01
2022-07-29T23:17:24.980Z,36.43
2022-07-29T23:19:54.866Z,36.26
2022-07-29T23:22:27.278Z,36.53
2022-07-29T23:24:57.150Z,36.14
2022-07-29T23:27:35.549Z,36.36
2022-07-29T23:30:09.820Z,36.45
2022-07-29T23:32:40.103Z,35.91
2022-07-29T23:35:15.228Z,36.23
2022-07-29T23:37:44.487Z,36.21
2022-07-29T23:40:31.195Z,36.17
2022-07-29T23:42:59.326Z,36.27
2022-07-29T23:45:39.902Z,36.38
2022-07-29T23:48:12.532Z,36.32
2022-07-29T23:50:40.370Z,36.12
2022-07-29T23:53:08.253Z,36.26
2022-07-29T23:55:39.263Z,36.65
2022-07-29T23:58:07.431Z,36.60
